Time;durP1;ratioP1;P1;durP2;ratioP2;P2;SDS_P1;SDS_P2;PMS_P1;PMS_P2;Temp;Humidity;BMP_temperature;BMP_pressure;BME280_temperature;BME280_humidity;BME280_pressure;Samples;Min_cycle;Max_cycle;Signal;HPM_P1;HPM_P2
2022/01/17 00:02:23;;;;;;;59.80;31.40;;;;;;;-144.47;100.00;61586.06;4985963;28;20434;-79
2022/01/17 00:04:48;;;;;;;60.15;31.13;;;;;;;-144.47;100.00;61586.06;4979999;28;20044;-78
2022/01/17 00:07:15;;;;;;;59.30;31.95;;;;;;;-144.47;100.00;61586.06;5003416;28;20112;-78
2022/01/17 00:09:40;;;;;;;61.00;32.58;;;;;;;-144.47;100.00;61586.06;4983976;28;20137;-78
2022/01/17 00:12:08;;;;;;;64.60;33.13;;;;;;;-144.47;100.00;61586.06;5013349;28;20061;-77
2022/01/17 00:14:39;;;;;;;62.47;32.40;;;;;;;-144.47;100.00;61586.06;5020582;28;20033;-80
2022/01/17 00:17:28;;;;;;;59.65;31.40;;;;;;;-144.47;100.00;61586.06;5020767;28;20533;-78
2022/01/17 00:19:54;;;;;;;62.65;31.92;;;;;;;-144.47;100.00;61586.06;5013560;28;20053;-78
2022/01/17 00:22:20;;;;;;;60.35;31.45;;;;;;;-144.47;100.00;61586.06;5016774;28;20034;-78
2022/01/17 00:24:48;;;;;;;60.70;31.00;;;;;;;-144.47;100.00;61586.06;4999878;28;20041;-78
2022/01/17 00:27:14;;;;;;;56.50;30.20;;;;;;;-144.47;100.00;61586.06;5005811;28;20229;-78
2022/01/17 00:29:41;;;;;;;62.83;32.33;;;;;;;-144.47;100.00;61586.06;5017622;28;20041;-79
2022/01/17 00:32:07;;;;;;;64.25;31.52;;;;;;;-144.47;100.00;61586.06;5005128;28;20034;-78
2022/01/17 00:34:33;;;;;;;55.80;29.83;;;;;;;-144.47;100.00;61586.06;5007061;28;20043;-78
2022/01/17 00:36:59;;;;;;;61.85;32.38;;;;;;;-144.47;100.00;61586.06;5007193;28;20137;-79
2022/01/17 00:39:25;;;;;;;59.47;31.52;;;;;;;-144.47;100.00;61586.06;5007416;28;20061;-79
2022/01/17 00:41:51;;;;;;;64.05;31.25;;;;;;;-144.47;100.00;61586.06;5003490;28;20045;-80
2022/01/17 00:44:21;;;;;;;63.17;33.15;;;;;;;-144.47;100.00;61586.06;5002863;28;20026;-79
2022/01/17 00:46:48;;;;;;;55.75;30.98;;;;;;;-144.47;100.00;61586.06;5005550;28;20057;-79
2022/01/17 00:49:13;;;;;;;56.28;31.75;;;;;;;-144.47;100.00;61586.06;5003478;28;20410;-78
2022/01/17 00:51:39;;;;;;;54.85;30.40;;;;;;;-144.47;100.00;61586.06;5004602;28;20069;-79
2022/01/17 00:54:04;;;;;;;59.85;32.47;;;;;;;-144.47;100.00;61586.06;4986397;28;20092;-80
2022/01/17 00:56:30;;;;;;;59.45;31.38;;;;;;;-144.47;100.00;61586.06;5003082;28;20034;-78
2022/01/17 00:58:56;;;;;;;61.08;32.45;;;;;;;-144.47;100.00;61586.06;5005481;28;20034;-79
2022/01/17 01:01:22;;;;;;;54.92;31.88;;;;;;;-144.47;100.00;61586.06;5002648;28;20085;-79
2022/01/17 01:03:48;;;;;;;55.90;30.45;;;;;;;-144.47;100.00;61586.06;5001682;28;20030;-79
2022/01/17 01:06:14;;;;;;;53.13;30.17;;;;;;;-144.47;100.00;61586.06;5005262;28;20049;-79
2022/01/17 01:08:39;;;;;;;60.72;32.05;;;;;;;-144.47;100.00;61586.06;5010633;28;20111;-78
2022/01/17 01:11:05;;;;;;;54.90;31.38;;;;;;;-144.47;100.00;61586.06;5022512;28;20061;-79
2022/01/17 01:13:31;;;;;;;60.17;32.92;;;;;;;-144.47;100.00;61586.06;5027428;28;20029;-78
2022/01/17 01:21:23;;;;;;;57.65;30.52;;;;;;;-144.47;100.00;61586.06;5004488;28;20034;-79
2022/01/17 01:29:16;;;;;;;55.45;29.73;;;;;;;-144.47;100.00;61586.06;4956856;23;20052;-79
2022/01/17 01:34:08;;;;;;;56.15;31.80;;;;;;;-144.47;100.00;61586.06;4941867;29;20028;-80
2022/01/17 01:36:35;;;;;;;56.20;30.45;;;;;;;-144.47;100.00;61586.06;4941406;28;20035;-79
2022/01/17 01:39:02;;;;;;;58.65;30.95;;;;;;;-144.47;100.00;61586.06;4940792;29;20059;-79
2022/01/17 01:41:28;;;;;;;57.08;31.30;;;;;;;-144.47;100.00;61586.06;4944576;29;20036;-79
2022/01/17 01:43:53;;;;;;;62.30;31.45;;;;;;;-144.47;100.00;61586.06;4944624;29;20027;-79
2022/01/17 01:46:20;;;;;;;58.38;32.17;;;;;;;-144.47;100.00;61586.06;4944746;29;20062;-80
2022/01/17 01:48:46;;;;;;;61.08;33.15;;;;;;;-144.47;100.00;61586.06;4942003;29;20028;-79
2022/01/17 01:51:14;;;;;;;61.08;32.97;;;;;;;-144.47;100.00;61586.06;4943189;29;20027;-79
2022/01/17 01:53:40;;;;;;;63.20;31.60;;;;;;;-144.47;100.00;61586.06;4942610;29;20048;-78
2022/01/17 01:56:05;;;;;;;67.22;33.63;;;;;;;-144.47;100.00;61586.06;4941728;29;20127;-79
2022/01/17 01:58:31;;;;;;;64.57;34.65;;;;;;;-144.47;100.00;61586.06;4945804;29;20036;-79
2022/01/17 02:00:57;;;;;;;65.78;34.22;;;;;;;-144.47;100.00;61586.06;4939550;29;20035;-80
2022/01/17 02:03:23;;;;;;;61.05;33.30;;;;;;;-144.47;100.00;61586.06;4934251;29;20085;-80
2022/01/17 02:05:48;;;;;;;61.78;33.53;;;;;;;-144.47;100.00;61586.06;4931710;29;20547;-80
2022/01/17 02:08:15;;;;;;;60.78;32.65;;;;;;;-144.47;100.00;61586.06;4932357;29;20042;-80
2022/01/17 02:10:41;;;;;;;63.50;33.47;;;;;;;-144.47;100.00;61586.06;4925981;28;20052;-80
2022/01/17 02:13:07;;;;;;;64.20;33.83;;;;;;;-144.47;100.00;61586.06;4932753;29;20031;-79
2022/01/17 02:15:33;;;;;;;60.05;33.17;;;;;;;-144.47;100.00;61586.06;4928453;29;20424;-79
2022/01/17 02:17:59;;;;;;;62.22;33.15;;;;;;;-144.47;100.00;61586.06;4928890;29;20083;-80
2022/01/17 02:20:42;;;;;;;62.10;33.67;;;;;;;-144.47;100.00;61586.06;4925689;29;20040;-80
2022/01/17 02:23:08;;;;;;;60.42;32.30;;;;;;;-144.47;100.00;61586.06;4926890;28;20544;-80
2022/01/17 02:25:34;;;;;;;59.60;31.90;;;;;;;-144.47;100.00;61586.06;4928117;29;20039;-79
2022/01/17 02:28:01;;;;;;;60.90;32.15;;;;;;;-144.47;100.00;61586.06;4926430;29;20067;-78
2022/01/17 02:30:31;;;;;;;59.38;33.08;;;;;;;-144.47;100.00;61586.06;4924367;29;20126;-80
2022/01/17 02:32:57;;;;;;;;;;;;;;;-144.47;100.00;61586.06;4927207;29;20067;-80
2022/01/17 02:35:23;;;;;;;56.53;31.77;;;;;;;-144.47;100.00;61586.06;4923512;29;20381;-80
2022/01/17 02:37:50;;;;;;;59.88;32.72;;;;;;;-144.47;100.00;61586.06;4926443;29;20047;-80
2022/01/17 02:40:18;;;;;;;64.65;32.25;;;;;;;-144.47;100.00;61586.06;4926572;28;20028;-80
2022/01/17 02:42:49;;;;;;;67.28;34.08;;;;;;;-144.47;100.00;61586.06;4923163;29;20633;-79
2022/01/17 02:45:32;;;;;;;61.88;33.70;;;;;;;-144.47;100.00;61586.06;4925356;29;20067;-80
2022/01/17 02:48:11;;;;;;;61.55;32.28;;;;;;;-144.47;100.00;61586.06;4923631;29;20028;-80
2022/01/17 02:50:39;;;;;;;64.30;34.42;;;;;;;-144.47;100.00;61586.06;4922964;29;20066;-80
2022/01/17 02:53:08;;;;;;;57.95;32.45;;;;;;;-144.47;100.00;61586.06;4924330;29;20028;-78
2022/01/17 02:55:35;;;;;;;65.35;34.63;;;;;;;-144.47;100.00;61586.06;4927250;29;20540;-80
2022/01/17 02:58:00;;;;;;;62.10;32.78;;;;;;;-144.47;100.00;61586.06;4925010;29;20093;-79
2022/01/17 03:00:26;;;;;;;60.80;32.83;;;;;;;-144.47;100.00;61586.06;4922692;29;20517;-80
2022/01/17 03:02:52;;;;;;;60.17;34.13;;;;;;;-144.47;100.00;61586.06;4925490;29;20133;-80
2022/01/17 03:05:18;;;;;;;60.35;32.83;;;;;;;-144.47;100.00;61586.06;4922695;29;20045;-79
2022/01/17 03:07:45;;;;;;;57.20;31.77;;;;;;;-144.47;100.00;61586.06;4926069;29;20028;-80
2022/01/17 03:10:28;;;;;;;66.03;32.88;;;;;;;-144.47;100.00;61586.06;4924729;29;20494;-79
2022/01/17 03:13:01;;;;;;;62.72;32.55;;;;;;;-144.47;100.00;61586.06;4921727;29;20083;-79
2022/01/17 03:15:27;;;;;;;59.75;34.17;;;;;;;-144.47;100.00;61586.06;4925584;29;20039;-79
2022/01/17 03:17:53;;;;;;;58.22;32.50;;;;;;;-144.47;100.00;61586.06;4922834;29;20039;-79
2022/01/17 03:20:18;;;;;;;62.65;33.55;;;;;;;-144.47;100.00;61586.06;4926099;29;20042;-78
2022/01/17 03:22:44;;;;;;;57.65;32.92;;;;;;;-144.47;100.00;61586.06;4922795;28;20421;-80
2022/01/17 03:25:10;;;;;;;65.05;34.63;;;;;;;-144.47;100.00;61586.06;4928399;29;20071;-80
2022/01/17 03:27:35;;;;;;;63.80;32.22;;;;;;;-144.47;100.00;61586.06;4923013;29;20044;-80
2022/01/17 03:30:00;;;;;;;55.47;32.20;;;;;;;-144.47;100.00;61586.06;4920620;29;20485;-80
2022/01/17 03:32:26;;;;;;;64.00;34.20;;;;;;;-144.47;100.00;61586.06;4922418;29;20036;-79
2022/01/17 03:34:54;;;;;;;57.35;31.52;;;;;;;-144.47;100.00;61586.06;4925504;29;20059;-80
2022/01/17 03:37:19;;;;;;;62.03;33.78;;;;;;;-144.47;100.00;61586.06;4925587;29;20035;-81
2022/01/17 03:39:45;;;;;;;59.10;32.42;;;;;;;-144.47;100.00;61586.06;4922521;29;20028;-79
2022/01/17 03:42:10;;;;;;;63.30;32.80;;;;;;;-144.47;100.00;61586.06;4924516;29;20036;-79
2022/01/17 03:44:36;;;;;;;58.65;32.33;;;;;;;-144.47;100.00;61586.06;4923368;28;20059;-79
2022/01/17 03:47:01;;;;;;;54.38;30.95;;;;;;;-144.47;100.00;61586.06;4926261;29;20032;-79
2022/01/17 03:49:27;;;;;;;59.60;33.78;;;;;;;-144.47;100.00;61586.06;4929118;28;20036;-80
2022/01/17 03:51:52;;;;;;;55.97;31.92;;;;;;;-144.47;100.00;61586.06;4926086;29;20036;-79
2022/01/17 03:54:18;;;;;;;57.25;33.63;;;;;;;-144.47;100.00;61586.06;4932017;29;20111;-79
2022/01/17 03:56:43;;;;;;;60.38;32.67;;;;;;;-144.47;100.00;61586.06;4928276;29;20371;-79
2022/01/17 03:59:09;;;;;;;62.45;35.22;;;;;;;-144.47;100.00;61586.06;4927125;29;20119;-79
2022/01/17 04:01:35;;;;;;;60.38;32.50;;;;;;;-144.47;100.00;61586.06;4925929;29;20062;-81
2022/01/17 04:04:01;;;;;;;58.97;33.25;;;;;;;-144.47;100.00;61586.06;4927033;29;20055;-79
2022/01/17 04:06:27;;;;;;;63.58;34.47;;;;;;;-144.47;100.00;61586.06;4928777;29;20071;-80
2022/01/17 04:08:52;;;;;;;57.35;34.15;;;;;;;-144.47;100.00;61586.06;4926613;29;20146;-80
2022/01/17 04:11:17;;;;;;;64.40;35.28;;;;;;;-144.47;100.00;61586.06;4928956;29;20102;-80
2022/01/17 04:13:43;;;;;;;63.97;35.15;;;;;;;-144.47;100.00;61586.06;4926200;29;20060;-81
2022/01/17 04:16:11;;;;;;;64.60;35.45;;;;;;;-144.47;100.00;61586.06;4926648;29;20482;-80
2022/01/17 04:18:37;;;;;;;63.00;35.55;;;;;;;-144.47;100.00;61586.06;4928725;29;20039;-80
2022/01/17 04:21:03;;;;;;;62.45;33.70;;;;;;;-144.47;100.00;61586.06;4927491;29;20067;-80
2022/01/17 04:23:29;;;;;;;59.92;34.38;;;;;;;-144.47;100.00;61586.06;4930184;29;20087;-80
2022/01/17 04:25:54;;;;;;;60.17;35.13;;;;;;;-144.47;100.00;61586.06;4928936;29;20114;-79
2022/01/17 04:28:20;;;;;;;61.88;35.45;;;;;;;-144.47;100.00;61586.06;4924979;29;20096;-80
2022/01/17 04:30:46;;;;;;;65.53;36.03;;;;;;;-144.47;100.00;61586.06;4927724;29;20050;-80
2022/01/17 04:33:12;;;;;;;63.33;33.70;;;;;;;-144.47;100.00;61586.06;4926008;29;20031;-80
2022/01/17 04:35:40;;;;;;;58.85;32.08;;;;;;;-144.47;100.00;61586.06;4941560;29;20048;-80
2022/01/17 04:38:13;;;;;;;58.58;32.45;;;;;;;-144.47;100.00;61586.06;4927026;29;20040;-79
2022/01/17 04:40:40;;;;;;;63.28;34.15;;;;;;;-144.47;100.00;61586.06;4925450;29;20040;-79
2022/01/17 04:46:09;;;;;;;64.15;33.42;;;;;;;-144.47;100.00;61586.06;4934407;29;20056;-79
2022/01/17 04:48:36;;;;;;;59.65;32.00;;;;;;;-144.47;100.00;61586.06;4926155;29;20051;-79
2022/01/17 04:51:02;;;;;;;58.67;32.40;;;;;;;-144.47;100.00;61586.06;4927013;29;20235;-79
2022/01/17 04:53:29;;;;;;;61.50;33.42;;;;;;;-144.47;100.00;61586.06;4929136;29;20409;-80
2022/01/17 04:55:55;;;;;;;57.72;33.47;;;;;;;-144.47;100.00;61586.06;4924124;29;20162;-79
2022/01/17 04:58:21;;;;;;;60.33;33.05;;;;;;;-144.47;100.00;61586.06;4927599;28;20031;-79
2022/01/17 05:00:47;;;;;;;61.13;34.15;;;;;;;-144.47;100.00;61586.06;4924504;29;20115;-80
2022/01/17 05:03:21;;;;;;;61.38;33.58;;;;;;;-144.47;100.00;61586.06;4927269;29;20036;-81
2022/01/17 05:05:47;;;;;;;58.00;33.17;;;;;;;-144.47;100.00;61586.06;4924583;29;20115;-81
2022/01/17 05:08:13;;;;;;;60.72;34.35;;;;;;;-144.47;100.00;61586.06;4927327;29;20046;-81
2022/01/17 05:10:39;;;;;;;61.70;33.45;;;;;;;-144.47;100.00;61586.06;4926286;29;20576;-80
2022/01/17 05:13:05;;;;;;;60.03;33.83;;;;;;;-144.47;100.00;61586.06;4926087;29;20107;-80
2022/01/17 05:18:01;;;;;;;67.05;36.22;;;;;;;-144.47;100.00;61586.06;4925085;29;20396;-81
2022/01/17 05:20:27;;;;;;;65.35;34.25;;;;;;;-144.47;100.00;61586.06;4927651;29;20504;-80
2022/01/17 05:22:53;;;;;;;65.07;34.88;;;;;;;-144.47;100.00;61586.06;4924554;29;20051;-80
2022/01/17 05:25:19;;;;;;;58.05;35.38;;;;;;;-144.47;100.00;61586.06;4930936;29;20043;-81
2022/01/17 05:27:45;;;;;;;63.85;35.58;;;;;;;-144.47;100.00;61586.06;4927065;29;20051;-81
2022/01/17 05:30:14;;;;;;;61.38;34.45;;;;;;;-144.47;100.00;61586.06;4925392;29;20063;-80
2022/01/17 05:32:40;;;;;;;59.38;33.80;;;;;;;-144.47;100.00;61586.06;4925903;29;20055;-80
2022/01/17 05:35:06;;;;;;;62.70;34.85;;;;;;;-144.47;100.00;61586.06;4928035;28;20401;-80
2022/01/17 05:37:32;;;;;;;65.80;34.47;;;;;;;-144.47;100.00;61586.06;4927978;29;20032;-80
2022/01/17 05:39:58;;;;;;;64.60;34.63;;;;;;;-144.47;100.00;61586.06;4925598;29;20028;-81
2022/01/17 05:42:24;;;;;;;60.10;34.15;;;;;;;-144.47;100.00;61586.06;4928373;29;20043;-80
2022/01/17 05:44:52;;;;;;;61.03;35.80;;;;;;;-144.47;100.00;61586.06;4924105;29;20379;-79
2022/01/17 05:47:18;;;;;;;59.67;33.80;;;;;;;-144.47;100.00;61586.06;4927428;29;20035;-80
2022/01/17 05:49:43;;;;;;;61.47;34.00;;;;;;;-144.47;100.00;61586.06;4924792;29;20040;-80
2022/01/17 05:52:10;;;;;;;60.92;32.58;;;;;;;-144.47;100.00;61586.06;4941590;28;20036;-80
2022/01/17 05:54:36;;;;;;;59.28;32.85;;;;;;;-144.47;100.00;61586.06;4929206;29;20036;-79
2022/01/17 05:57:03;;;;;;;62.15;32.60;;;;;;;-144.47;100.00;61586.06;4927027;29;20042;-79
2022/01/17 05:59:28;;;;;;;59.35;32.50;;;;;;;-144.47;100.00;61586.06;4924459;29;20043;-80
2022/01/17 06:01:54;;;;;;;59.20;33.00;;;;;;;-144.47;100.00;61586.06;4939287;29;20044;-80
2022/01/17 06:04:20;;;;;;;61.92;32.50;;;;;;;-144.47;100.00;61586.06;4924088;29;20083;-80
2022/01/17 06:06:47;;;;;;;57.88;31.67;;;;;;;-144.47;100.00;61586.06;4923655;29;20038;-79
2022/01/17 06:09:12;;;;;;;57.80;32.13;;;;;;;-144.47;100.00;61586.06;4940399;29;20024;-78
2022/01/17 06:11:38;;;;;;;57.05;32.58;;;;;;;-144.47;100.00;61586.06;4924639;29;20101;-79
2022/01/17 06:14:04;;;;;;;59.20;32.33;;;;;;;-144.47;100.00;61586.06;4924248;29;20118;-78
2022/01/17 06:16:30;;;;;;;57.05;31.67;;;;;;;-144.47;100.00;61586.06;4938707;28;20505;-80
2022/01/17 06:18:56;;;;;;;56.00;32.38;;;;;;;-144.47;100.00;61586.06;4926864;29;20039;-80
2022/01/17 06:21:21;;;;;;;59.38;33.22;;;;;;;-144.47;100.00;61586.06;4923709;29;20040;-80
2022/01/17 06:23:47;;;;;;;54.42;31.65;;;;;;;-144.47;100.00;61586.06;4927783;29;20094;-79
2022/01/17 06:26:13;;;;;;;56.45;32.33;;;;;;;-144.47;100.00;61586.06;4924295;29;20027;-78
2022/01/17 06:28:39;;;;;;;56.55;30.85;;;;;;;-144.47;100.00;61586.06;4926295;29;20509;-79
2022/01/17 06:31:04;;;;;;;57.78;31.50;;;;;;;-144.47;100.00;61586.06;4924361;29;20036;-77
2022/01/17 06:33:30;;;;;;;57.90;30.85;;;;;;;-144.47;100.00;61586.06;4923390;29;20032;-78
2022/01/17 06:35:55;;;;;;;57.08;31.77;;;;;;;-144.47;100.00;61586.06;4925573;29;20035;-78
2022/01/17 06:38:21;;;;;;;56.85;31.02;;;;;;;-144.47;100.00;61586.06;4923871;29;20115;-79
2022/01/17 06:40:46;;;;;;;59.17;32.35;;;;;;;-144.47;100.00;61586.06;4243744;28;10000756;-82
2022/01/17 06:43:12;;;;;;;54.17;31.23;;;;;;;-144.47;100.00;61586.06;4587882;28;10000116;-82
2022/01/17 06:45:38;;;;;;;56.33;30.33;;;;;;;-144.47;100.00;61586.06;4926485;28;20044;-82
2022/01/17 06:48:05;;;;;;;53.70;30.30;;;;;;;-144.47;100.00;61586.06;4580947;28;9999726;-82
2022/01/17 06:50:32;;;;;;;60.33;31.15;;;;;;;-144.47;100.00;61586.06;4923380;29;20099;-80
2022/01/17 06:52:58;;;;;;;57.50;32.08;;;;;;;-144.47;100.00;61586.06;4921176;29;20032;-81
2022/01/17 06:55:24;;;;;;;55.97;29.98;;;;;;;-144.47;100.00;61586.06;4923925;29;20557;-80
2022/01/17 06:57:49;;;;;;;55.20;31.38;;;;;;;-144.47;100.00;61586.06;4922021;28;20070;-81
2022/01/17 07:00:15;;;;;;;55.25;30.35;;;;;;;-144.47;100.00;61586.06;4920801;28;20047;-81
2022/01/17 07:02:41;;;;;;;56.25;31.70;;;;;;;-144.47;100.00;61586.06;4921882;29;20441;-81
2022/01/17 07:05:07;;;;;;;55.53;31.08;;;;;;;-144.47;100.00;61586.06;4922481;29;20039;-81
2022/01/17 07:07:32;;;;;;;55.50;30.27;;;;;;;-144.47;100.00;61586.06;4580228;28;9999888;-81
2022/01/17 07:09:58;;;;;;;59.20;31.45;;;;;;;-144.47;100.00;61586.06;4920997;29;20314;-79
2022/01/17 07:12:23;;;;;;;56.17;30.73;;;;;;;-144.47;100.00;61586.06;4925867;28;20066;-83
2022/01/17 07:14:49;;;;;;;56.55;30.40;;;;;;;-144.47;100.00;61586.06;4922064;29;20032;-81
2022/01/17 07:17:14;;;;;;;55.70;31.17;;;;;;;-144.47;100.00;61586.06;4922878;29;20051;-82
2022/01/17 07:19:40;;;;;;;56.88;32.20;;;;;;;-144.47;100.00;61586.06;4924198;29;20036;-82
2022/01/17 07:22:06;;;;;;;55.67;32.00;;;;;;;-144.47;100.00;61586.06;4923285;29;20036;-82
2022/01/17 07:24:33;;;;;;;53.17;29.92;;;;;;;-144.47;100.00;61586.06;4927055;28;20032;-81
2022/01/17 07:26:58;;;;;;;63.58;33.95;;;;;;;-144.47;100.00;61586.06;4926654;29;20050;-83
2022/01/17 07:29:24;;;;;;;55.75;32.22;;;;;;;-144.47;100.00;61586.06;4922288;29;20040;-82
2022/01/17 07:31:50;;;;;;;57.17;30.98;;;;;;;-144.47;100.00;61586.06;4924809;29;20044;-81
2022/01/17 07:34:15;;;;;;;61.03;32.45;;;;;;;-144.47;100.00;61586.06;4922630;29;20127;-79
2022/01/17 07:36:41;;;;;;;56.75;31.02;;;;;;;-144.47;100.00;61586.06;4924435;29;20036;-82
2022/01/17 07:39:06;;;;;;;57.72;31.38;;;;;;;-144.47;100.00;61586.06;4923860;29;20190;-81
2022/01/17 07:41:32;;;;;;;57.03;31.90;;;;;;;-144.47;100.00;61586.06;4940723;29;20071;-81
2022/01/17 07:44:01;;;;;;;57.45;31.23;;;;;;;-144.47;100.00;61586.06;4921047;29;20123;-81
2022/01/17 07:46:47;;;;;;;57.03;31.95;;;;;;;-144.47;100.00;61586.06;4926168;29;20040;-82
2022/01/17 07:49:16;;;;;;;55.00;31.10;;;;;;;-144.47;100.00;61586.06;4937504;29;20501;-82
2022/01/17 07:51:44;;;;;;;54.50;31.73;;;;;;;-144.47;100.00;61586.06;4921094;28;20585;-82
2022/01/17 07:54:14;;;;;;;56.72;32.40;;;;;;;-144.47;100.00;61586.06;4922854;29;20114;-82
2022/01/17 07:56:40;;;;;;;62.90;31.10;;;;;;;-144.47;100.00;61586.06;4923206;29;20210;-82
2022/01/17 07:59:08;;;;;;;55.80;31.48;;;;;;;-144.47;100.00;61586.06;4923122;29;20384;-82
2022/01/17 08:01:35;;;;;;;59.38;32.05;;;;;;;-144.47;100.00;61586.06;4923653;29;20126;-82
2022/01/17 08:04:00;;;;;;;55.92;31.85;;;;;;;-144.47;100.00;61586.06;4905990;29;20489;-82
2022/01/17 08:06:26;;;;;;;54.88;30.83;;;;;;;-144.47;100.00;61586.06;4925326;29;20047;-82
2022/01/17 08:08:51;;;;;;;53.88;30.98;;;;;;;-144.47;100.00;61586.06;4924945;29;20043;-82
2022/01/17 08:11:18;;;;;;;54.15;31.38;;;;;;;-144.47;100.00;61586.06;4922240;29;20667;-82
2022/01/17 08:13:44;;;;;;;60.53;32.75;;;;;;;-144.47;100.00;61586.06;4923631;29;20038;-82
2022/01/17 08:16:09;;;;;;;57.08;33.17;;;;;;;-144.47;100.00;61586.06;4923152;29;20173;-82
2022/01/17 08:18:35;;;;;;;56.80;32.05;;;;;;;-144.47;100.00;61586.06;4923279;29;20067;-81
2022/01/17 08:21:04;;;;;;;55.67;30.52;;;;;;;-144.47;100.00;61586.06;4925476;29;20036;-81
2022/01/17 08:23:30;;;;;;;62.08;31.75;;;;;;;-144.47;100.00;61586.06;4924833;29;20047;-80
2022/01/17 08:25:55;;;;;;;58.60;32.05;;;;;;;-144.47;100.00;61586.06;4926416;28;20035;-81
2022/01/17 08:28:22;;;;;;;57.38;33.13;;;;;;;-144.47;100.00;61586.06;4921201;29;20383;-81
2022/01/17 08:30:47;;;;;;;53.17;30.13;;;;;;;-144.47;100.00;61586.06;4923937;29;20083;-82
2022/01/17 08:33:13;;;;;;;63.15;33.63;;;;;;;-144.47;100.00;61586.06;4925457;29;20083;-82
2022/01/17 08:35:38;;;;;;;62.65;32.30;;;;;;;-144.47;100.00;61586.06;4927464;29;20032;-82
2022/01/17 08:38:04;;;;;;;59.03;32.95;;;;;;;-144.47;100.00;61586.06;4927379;29;20044;-81
2022/01/17 08:40:30;;;;;;;57.10;31.85;;;;;;;-144.47;100.00;61586.06;4925474;29;20039;-82
2022/01/17 08:42:55;;;;;;;58.20;31.77;;;;;;;-144.47;100.00;61586.06;4928232;28;20050;-81
2022/01/17 08:45:23;;;;;;;61.08;32.83;;;;;;;-144.47;100.00;61586.06;4924707;29;20051;-81
2022/01/17 08:47:49;;;;;;;56.85;31.30;;;;;;;-144.47;100.00;61586.06;4927517;29;20171;-81
2022/01/17 08:50:17;;;;;;;59.03;32.63;;;;;;;-144.47;100.00;61586.06;4924654;29;20035;-81
2022/01/17 08:52:47;;;;;;;56.50;31.73;;;;;;;-144.47;100.00;61586.06;4925785;29;20040;-81
2022/01/17 08:55:17;;;;;;;60.58;32.45;;;;;;;-144.47;100.00;61586.06;4926567;29;20039;-81
2022/01/17 08:57:43;;;;;;;59.53;32.92;;;;;;;-144.47;100.00;61586.06;4927273;29;20051;-81
2022/01/17 09:00:12;;;;;;;52.33;30.13;;;;;;;-144.47;100.00;61586.06;4926190;29;20032;-81
2022/01/17 09:02:39;;;;;;;59.50;31.55;;;;;;;-144.47;100.00;61586.06;4926269;29;20091;-81
2022/01/17 09:05:04;;;;;;;60.30;33.08;;;;;;;-144.47;100.00;61586.06;4927393;29;20036;-81
2022/01/17 09:07:30;;;;;;;56.33;31.90;;;;;;;-144.47;100.00;61586.06;4923952;28;20140;-81
2022/01/17 09:09:55;;;;;;;52.95;31.45;;;;;;;-144.47;100.00;61586.06;4924645;29;20040;-82
2022/01/17 09:12:21;;;;;;;53.05;29.95;;;;;;;-144.47;100.00;61586.06;4927776;29;20027;-81
2022/01/17 09:14:46;;;;;;;59.45;32.53;;;;;;;-144.47;100.00;61586.06;4923637;29;20044;-81
2022/01/17 09:17:12;;;;;;;55.83;31.80;;;;;;;-144.47;100.00;61586.06;4926288;29;20032;-80
2022/01/17 09:19:40;;;;;;;56.72;32.15;;;;;;;-144.47;100.00;61586.06;4925122;29;20028;-81
2022/01/17 09:22:10;;;;;;;49.95;30.00;;;;;;;-144.47;100.00;61586.06;4926308;29;20036;-81
2022/01/17 09:24:37;;;;;;;52.03;31.15;;;;;;;-144.47;100.00;61586.06;4926797;28;20040;-81
2022/01/17 09:27:04;;;;;;;60.55;32.80;;;;;;;-144.47;100.00;61586.06;4931196;29;20524;-81
2022/01/17 09:29:30;;;;;;;55.50;32.03;;;;;;;-144.47;100.00;61586.06;4927002;29;20406;-82
2022/01/17 09:31:55;;;;;;;57.65;30.98;;;;;;;-144.47;100.00;61586.06;4925069;29;20477;-82
2022/01/17 09:34:21;;;;;;;50.42;30.20;;;;;;;-144.47;100.00;61586.06;4925262;29;20028;-81
2022/01/17 09:36:48;;;;;;;52.75;29.80;;;;;;;-144.47;100.00;61586.06;4947088;28;20078;-81
2022/01/17 09:39:16;;;;;;;52.58;30.30;;;;;;;-144.47;100.00;61586.06;4930008;29;20035;-80
2022/01/17 09:41:42;;;;;;;50.72;30.33;;;;;;;-144.47;100.00;61586.06;4927913;28;20050;-81
2022/01/17 09:44:16;;;;;;;52.80;29.69;;;;;;;-144.47;100.00;61586.06;4892575;28;10001076;-82
2022/01/17 09:46:45;;;;;;;52.75;30.30;;;;;;;-144.47;100.00;61586.06;4944671;29;20316;-80
2022/01/17 09:49:22;;;;;;;55.22;31.10;;;;;;;-144.47;100.00;61586.06;4943461;29;20103;-81
2022/01/17 09:54:30;;;;;;;48.50;29.67;;;;;;;-144.47;100.00;61586.06;4940745;29;20040;-79
2022/01/17 09:56:59;;;;;;;48.25;29.88;;;;;;;-144.47;100.00;61586.06;4600380;28;9999899;-80
2022/01/17 09:59:25;;;;;;;53.67;31.45;;;;;;;-144.47;100.00;61586.06;4948296;29;20078;-78
2022/01/17 10:01:51;;;;;;;52.10;28.73;;;;;;;-144.47;100.00;61586.06;4925008;29;20036;-79
2022/01/17 10:04:17;;;;;;;55.45;29.95;;;;;;;-144.47;100.00;61586.06;4926530;29;20043;-80
2022/01/17 10:06:54;;;;;;;49.15;28.65;;;;;;;-144.47;100.00;61586.06;4932754;29;20060;-79
2022/01/17 10:09:24;;;;;;;49.20;29.15;;;;;;;-144.47;100.00;61586.06;4928945;29;20039;-78
2022/01/17 10:12:05;;;;;;;54.33;27.90;;;;;;;-144.47;100.00;61586.06;4925394;29;20036;-81
2022/01/17 10:14:36;;;;;;;46.45;27.55;;;;;;;-144.47;100.00;61586.06;4924993;29;20645;-79
2022/01/17 10:17:07;;;;;;;52.78;27.92;;;;;;;-144.47;100.00;61586.06;4922929;29;20035;-80
2022/01/17 10:19:33;;;;;;;43.40;27.33;;;;;;;-144.47;100.00;61586.06;4922382;29;20051;-81
2022/01/17 10:22:01;;;;;;;46.08;28.00;;;;;;;-144.47;100.00;61586.06;4927481;29;20050;-79
2022/01/17 10:35:10;;;;;;;49.22;27.00;;;;;;;-144.47;100.00;61586.06;4922877;29;20401;-78
2022/01/17 10:37:39;;;;;;;;;;;;;;;-144.47;100.00;61586.06;4921165;29;20063;-78
2022/01/17 10:40:10;;;;;;;42.78;26.27;;;;;;;-144.47;100.00;61586.06;4924448;29;20013;-78
2022/01/17 10:42:41;;;;;;;46.08;27.80;;;;;;;-144.47;100.00;61586.06;4931601;29;20039;-80
2022/01/17 10:45:13;;;;;;;47.97;27.40;;;;;;;-144.47;100.00;61586.06;4924177;29;20405;-78
2022/01/17 10:47:43;;;;;;;46.05;27.17;;;;;;;-144.47;100.00;61586.06;4932020;29;20090;-78
2022/01/17 10:50:14;;;;;;;49.85;27.98;;;;;;;-144.47;100.00;61586.06;4926545;28;20072;-79
2022/01/17 10:52:47;;;;;;;48.28;27.08;;;;;;;-144.47;100.00;61586.06;4944449;28;20027;-80
2022/01/17 10:55:32;;;;;;;42.03;26.77;;;;;;;-144.47;100.00;61586.06;4925154;29;20039;-80
2022/01/17 10:58:09;;;;;;;40.90;26.33;;;;;;;-144.47;100.00;61586.06;4929613;29;20027;-79
2022/01/17 11:00:37;;;;;;;40.53;25.42;;;;;;;-144.47;100.00;61586.06;4924303;29;20036;-79
2022/01/17 11:03:06;;;;;;;42.75;26.75;;;;;;;-144.47;100.00;61586.06;4926173;29;20034;-79
2022/01/17 11:05:32;;;;;;;40.80;24.67;;;;;;;-144.47;100.00;61586.06;4923450;29;20068;-80
2022/01/17 11:08:02;;;;;;;38.40;24.65;;;;;;;-144.47;100.00;61586.06;4928604;29;20059;-80
2022/01/17 11:10:30;;;;;;;38.65;23.52;;;;;;;-144.47;100.00;61586.06;4926514;28;20027;-80
2022/01/17 11:12:58;;;;;;;35.88;22.58;;;;;;;-144.47;100.00;61586.06;4923647;29;20079;-78
2022/01/17 11:15:25;;;;;;;42.08;23.90;;;;;;;-144.47;100.00;61586.06;4928888;29;20044;-78
2022/01/17 11:17:54;;;;;;;38.28;23.42;;;;;;;-144.47;100.00;61586.06;4926760;29;20122;-79
2022/01/17 11:20:23;;;;;;;36.13;22.55;;;;;;;-144.47;100.00;61586.06;4943044;28;20106;-79
2022/01/17 11:22:50;;;;;;;35.53;22.63;;;;;;;-144.47;100.00;61586.06;4922756;29;20138;-81
2022/01/17 11:25:30;;;;;;;35.25;22.55;;;;;;;-144.47;100.00;61586.06;4929262;29;20066;-79
2022/01/17 11:27:58;;;;;;;35.47;22.58;;;;;;;-144.47;100.00;61586.06;4922386;29;20493;-81